Time;durP1;ratioP1;P1;durP2;ratioP2;P2;SDS_P1;SDS_P2;PMS_P1;PMS_P2;Temp;Humidity;BMP_temperature;BMP_pressure;BME280_temperature;BME280_humidity;BME280_pressure;Samples;Min_cycle;Max_cycle;Signal;HPM_P1;HPM_P2
2022/07/29 00:01:55;;;;;;;2.92;1.10;;;15.60;99.90;;;;;;4996882;28;20041;-85
2022/07/29 00:04:21;;;;;;;4.20;1.10;;;15.50;99.90;;;;;;5012557;28;20038;-85
2022/07/29 00:06:46;;;;;;;2.72;1.00;;;15.50;99.90;;;;;;4996522;28;20054;-85
2022/07/29 00:09:12;;;;;;;2.72;1.10;;;15.50;99.90;;;;;;5013174;28;20109;-85
2022/07/29 00:11:38;;;;;;;4.70;1.00;;;15.50;99.90;;;;;;4979824;28;20057;-84
2022/07/29 00:14:04;;;;;;;1.55;0.98;;;15.50;99.90;;;;;;5012816;28;20072;-84
2022/07/29 00:16:29;;;;;;;4.97;1.45;;;15.50;99.90;;;;;;4995855;28;20033;-85
2022/07/29 00:18:55;;;;;;;3.13;1.23;;;15.50;99.90;;;;;;4980066;28;20091;-85
2022/07/29 00:21:21;;;;;;;3.53;1.25;;;15.50;99.90;;;;;;5004216;28;20403;-85
2022/07/29 00:23:46;;;;;;;4.65;1.38;;;15.40;99.90;;;;;;5012716;28;20041;-85
2022/07/29 00:26:12;;;;;;;1.45;1.00;;;15.40;99.90;;;;;;5000466;28;20038;-85
2022/07/29 00:28:37;;;;;;;1.52;0.90;;;15.40;99.90;;;;;;5012071;28;20066;-84
2022/07/29 00:31:03;;;;;;;5.72;1.10;;;15.40;99.90;;;;;;4979700;28;20081;-85
2022/07/29 00:33:29;;;;;;;1.70;0.90;;;15.40;99.90;;;;;;5012200;28;20177;-85
2022/07/29 00:35:54;;;;;;;2.10;0.88;;;15.40;99.90;;;;;;4995976;28;20116;-85
2022/07/29 00:38:20;;;;;;;1.75;1.00;;;15.40;99.90;;;;;;5012550;28;20045;-84
2022/07/29 00:40:47;;;;;;;4.95;1.30;;;15.50;99.90;;;;;;5011106;28;20034;-84
2022/07/29 00:43:14;;;;;;;4.68;1.10;;;15.50;99.90;;;;;;4995853;28;20080;-85
2022/07/29 00:45:41;;;;;;;2.95;1.13;;;15.40;99.90;;;;;;4996090;28;20724;-84
2022/07/29 00:48:08;;;;;;;2.58;1.10;;;15.40;99.90;;;;;;4996570;28;20061;-84
2022/07/29 00:50:34;;;;;;;3.28;1.02;;;15.40;99.90;;;;;;4979691;28;20033;-84
2022/07/29 00:53:00;;;;;;;;;;;15.40;99.90;;;;;;5012753;28;20045;-84
2022/07/29 00:55:27;;;;;;;4.82;1.10;;;15.40;99.90;;;;;;5011595;28;19982;-84
2022/07/29 00:57:53;;;;;;;4.78;1.27;;;15.40;99.90;;;;;;5012150;28;20044;-85
2022/07/29 01:00:20;;;;;;;;;;;15.40;99.90;;;;;;5012488;28;20037;-85
2022/07/29 01:02:48;;;;;;;3.08;1.30;;;15.40;99.90;;;;;;5011360;28;19921;-85
2022/07/29 01:05:16;;;;;;;2.58;1.05;;;15.40;99.90;;;;;;5011621;28;20046;-85
2022/07/29 01:07:42;;;;;;;3.13;1.08;;;15.40;99.90;;;;;;4995263;28;20375;-85
2022/07/29 01:10:09;;;;;;;4.10;1.27;;;15.50;99.90;;;;;;4979046;28;20125;-84
2022/07/29 01:12:37;;;;;;;4.90;1.75;;;15.40;99.90;;;;;;5011680;28;20531;-84
2022/07/29 01:15:05;;;;;;;2.22;0.93;;;15.40;99.90;;;;;;4995605;28;20034;-85
2022/07/29 01:17:42;;;;;;;3.35;1.35;;;15.40;99.90;;;;;;4995159;28;20053;-84
2022/07/29 01:20:49;;;;;;;3.28;1.20;;;15.40;99.90;;;;;;5011538;28;20080;-84
2022/07/29 01:23:33;;;;;;;4.90;1.50;;;15.40;99.90;;;;;;4942068;28;20111;-84
2022/07/29 01:26:21;;;;;;;2.30;1.00;;;15.40;99.90;;;;;;5010684;28;20029;-84
2022/07/29 01:29:05;;;;;;;3.10;1.20;;;15.40;99.90;;;;;;5008602;28;20284;-84
2022/07/29 01:32:04;;;;;;;5.53;1.30;;;15.40;99.90;;;;;;5008558;28;20034;-84
2022/07/29 01:34:54;;;;;;;3.28;1.20;;;15.40;99.90;;;;;;5009290;28;20033;-84
2022/07/29 01:37:29;;;;;;;3.15;1.42;;;15.40;99.90;;;;;;5011262;28;20121;-84
2022/07/29 01:39:57;;;;;;;4.10;1.00;;;15.40;99.90;;;;;;5011153;28;20045;-84
2022/07/29 01:42:31;;;;;;;3.47;1.27;;;15.30;99.90;;;;;;5010933;28;20046;-84
2022/07/29 01:45:05;;;;;;;3.20;1.00;;;15.30;99.90;;;;;;4994956;28;20041;-84
2022/07/29 01:47:38;;;;;;;3.47;1.30;;;15.30;99.90;;;;;;4994814;28;20069;-85
2022/07/29 01:50:08;;;;;;;3.33;1.27;;;15.30;99.90;;;;;;5011072;28;20088;-84
2022/07/29 01:52:56;;;;;;;2.88;1.02;;;15.30;99.90;;;;;;5010713;28;20091;-84
2022/07/29 01:55:28;;;;;;;2.30;1.23;;;15.30;99.90;;;;;;4993461;28;20132;-84
2022/07/29 01:57:56;;;;;;;2.08;0.90;;;15.30;99.90;;;;;;5010922;28;20449;-85
2022/07/29 02:00:23;;;;;;;4.22;1.45;;;15.30;99.90;;;;;;4994378;28;20042;-85
2022/07/29 02:02:50;;;;;;;4.07;1.30;;;15.30;99.90;;;;;;4994379;28;20157;-84
2022/07/29 02:05:18;;;;;;;4.88;1.58;;;15.30;99.90;;;;;;5010645;28;20441;-84
2022/07/29 02:07:47;;;;;;;2.50;1.10;;;15.30;99.90;;;;;;5010359;28;20097;-84
2022/07/29 02:10:16;;;;;;;3.47;1.10;;;15.30;99.90;;;;;;5025164;28;20073;-84
2022/07/29 02:12:43;;;;;;;2.33;1.20;;;15.30;99.90;;;;;;5010708;28;20546;-84
2022/07/29 02:15:11;;;;;;;3.25;1.02;;;15.30;99.90;;;;;;4978070;28;20084;-84
2022/07/29 02:17:49;;;;;;;3.47;1.00;;;15.30;99.90;;;;;;4994144;28;20486;-84
2022/07/29 02:20:16;;;;;;;2.13;0.80;;;15.30;99.90;;;;;;5008570;28;20085;-84
2022/07/29 02:22:44;;;;;;;4.03;1.13;;;15.30;99.90;;;;;;4993904;28;20046;-83
2022/07/29 02:25:12;;;;;;;4.63;1.10;;;15.30;99.90;;;;;;5010394;28;20044;-84
2022/07/29 02:27:39;;;;;;;3.17;1.00;;;15.30;99.90;;;;;;5010091;28;20049;-84
2022/07/29 02:30:06;;;;;;;3.72;1.17;;;15.30;99.90;;;;;;4994487;28;20038;-84
2022/07/29 02:32:35;;;;;;;3.50;1.15;;;15.30;99.90;;;;;;4978217;28;20034;-83
2022/07/29 02:35:02;;;;;;;2.47;0.90;;;15.30;99.90;;;;;;5010375;28;20443;-83
2022/07/29 02:37:29;;;;;;;3.55;1.08;;;15.30;99.90;;;;;;4994187;28;20042;-83
2022/07/29 02:39:57;;;;;;;2.53;1.17;;;15.30;99.90;;;;;;5010578;28;20501;-83
2022/07/29 02:42:26;;;;;;;4.18;1.10;;;15.30;99.90;;;;;;5008986;28;20133;-84
2022/07/29 02:44:52;;;;;;;3.13;1.10;;;15.30;99.90;;;;;;5010002;28;20038;-84
2022/07/29 02:47:44;;;;;;;3.53;1.20;;;15.30;99.90;;;;;;5010294;28;20044;-84
2022/07/29 02:50:19;;;;;;;2.85;1.13;;;15.30;99.90;;;;;;5010004;28;20045;-84
2022/07/29 02:52:53;;;;;;;2.95;1.13;;;15.30;99.90;;;;;;4992949;28;20061;-84
2022/07/29 02:55:29;;;;;;;3.45;1.10;;;15.30;99.90;;;;;;5009371;28;20049;-84
2022/07/29 02:58:13;;;;;;;3.25;1.40;;;15.30;99.90;;;;;;5007631;28;20034;-84
2022/07/29 03:00:40;;;;;;;3.17;1.30;;;15.30;99.90;;;;;;5009301;28;20466;-83
2022/07/29 03:03:12;;;;;;;2.65;1.15;;;15.20;99.90;;;;;;5010185;28;20037;-83
2022/07/29 03:05:39;;;;;;;2.20;1.05;;;15.20;99.90;;;;;;5009462;28;20054;-83
2022/07/29 03:08:09;;;;;;;3.72;1.15;;;15.30;99.90;;;;;;4993678;28;20052;-84
2022/07/29 03:10:37;;;;;;;3.35;1.27;;;15.20;99.90;;;;;;4993989;28;20510;-84
2022/07/29 03:13:04;;;;;;;3.53;1.10;;;15.20;99.90;;;;;;5010234;28;20520;-84
2022/07/29 03:15:31;;;;;;;3.28;1.15;;;15.20;99.90;;;;;;5009993;28;20104;-84
2022/07/29 03:17:59;;;;;;;3.05;1.00;;;15.20;99.90;;;;;;5009925;28;20121;-84
2022/07/29 03:20:25;;;;;;;3.88;1.10;;;15.20;99.90;;;;;;4993672;28;20089;-83
2022/07/29 03:22:53;;;;;;;1.90;1.25;;;15.20;99.90;;;;;;4993293;28;20084;-84
2022/07/29 03:25:20;;;;;;;3.75;1.20;;;15.20;99.90;;;;;;5009863;28;20064;-84
2022/07/29 03:27:47;;;;;;;3.08;1.20;;;15.20;99.90;;;;;;5009647;28;20034;-84
2022/07/29 03:30:13;;;;;;;4.22;1.10;;;15.20;99.90;;;;;;4978065;28;20482;-84
2022/07/29 03:32:40;;;;;;;3.50;1.40;;;15.20;99.90;;;;;;5009900;28;20129;-83
2022/07/29 03:35:06;;;;;;;5.72;1.10;;;15.20;99.90;;;;;;5023965;28;20042;-84
2022/07/29 03:37:33;;;;;;;5.03;1.05;;;15.20;99.90;;;;;;5009337;28;20063;-84
2022/07/29 03:40:01;;;;;;;2.35;1.15;;;15.20;99.90;;;;;;5008882;28;20038;-84
2022/07/29 03:42:31;;;;;;;2.05;1.10;;;15.20;99.90;;;;;;5009968;28;20061;-83
2022/07/29 03:44:58;;;;;;;4.97;1.25;;;15.20;99.90;;;;;;5009322;28;20049;-82
2022/07/29 03:47:27;;;;;;;3.83;1.10;;;15.20;99.90;;;;;;5009675;28;20204;-83
2022/07/29 03:49:58;;;;;;;3.10;1.38;;;15.20;99.90;;;;;;4993402;28;20486;-83
2022/07/29 03:52:24;;;;;;;3.10;1.05;;;15.20;99.90;;;;;;4993449;28;20084;-83
2022/07/29 03:54:50;;;;;;;3.95;1.55;;;15.20;99.90;;;;;;4995769;28;20124;-83
2022/07/29 03:57:18;;;;;;;4.13;1.35;;;15.10;99.90;;;;;;4997134;28;20049;-84
2022/07/29 03:59:44;;;;;;;2.97;1.48;;;15.20;99.90;;;;;;5012895;28;20807;-84
2022/07/29 04:02:12;;;;;;;2.95;1.23;;;15.20;99.90;;;;;;5013570;28;20560;-85
2022/07/29 04:04:38;;;;;;;2.95;1.38;;;15.10;99.90;;;;;;5013185;28;20037;-84
2022/07/29 04:07:04;;;;;;;2.38;1.20;;;15.10;99.90;;;;;;5012817;28;20045;-84
2022/07/29 04:09:30;;;;;;;;;;;15.10;99.90;;;;;;4997456;28;20509;-84
2022/07/29 04:11:56;;;;;;;2.22;1.30;;;15.20;99.90;;;;;;5012610;28;19917;-83
2022/07/29 04:14:21;;;;;;;4.05;1.35;;;15.20;99.90;;;;;;5012800;28;20095;-82
2022/07/29 04:16:47;;;;;;;3.28;1.38;;;15.20;99.90;;;;;;5012632;28;20466;-82
2022/07/29 04:19:13;;;;;;;5.78;1.38;;;15.20;99.90;;;;;;5012942;28;20049;-82
2022/07/29 04:21:40;;;;;;;2.92;1.20;;;15.20;99.90;;;;;;5012952;28;20037;-83
2022/07/29 04:24:06;;;;;;;5.68;1.38;;;15.20;99.90;;;;;;5012540;28;20121;-85
2022/07/29 04:26:32;;;;;;;6.28;1.50;;;15.20;99.90;;;;;;5012867;28;20034;-85
2022/07/29 04:28:58;;;;;;;6.55;1.30;;;15.20;99.90;;;;;;4996056;28;20042;-83
2022/07/29 04:31:23;;;;;;;4.13;1.20;;;15.20;99.90;;;;;;5010209;28;20110;-84
2022/07/29 04:33:49;;;;;;;4.60;1.30;;;15.20;99.90;;;;;;5012628;28;20041;-84
2022/07/29 04:36:15;;;;;;;4.53;1.77;;;15.20;99.90;;;;;;4996592;28;20049;-84
2022/07/29 04:38:40;;;;;;;2.30;1.37;;;15.20;99.90;;;;;;5012654;28;20291;-84
2022/07/29 04:41:08;;;;;;;4.33;1.30;;;15.20;99.90;;;;;;5012099;28;20291;-84
2022/07/29 04:43:35;;;;;;;3.70;1.40;;;15.20;99.90;;;;;;4996211;28;20303;-83
2022/07/29 04:46:01;;;;;;;4.70;1.48;;;15.20;99.90;;;;;;5012194;28;20038;-84
2022/07/29 04:48:26;;;;;;;3.08;1.27;;;15.30;99.90;;;;;;4979056;28;20485;-84
2022/07/29 04:50:52;;;;;;;2.95;1.27;;;15.30;99.90;;;;;;4979465;28;20034;-85
2022/07/29 04:53:18;;;;;;;2.85;1.20;;;15.30;99.90;;;;;;4996057;28;20526;-84
2022/07/29 04:55:45;;;;;;;5.82;1.42;;;15.30;99.90;;;;;;5012411;28;20041;-84
2022/07/29 04:58:11;;;;;;;2.33;1.10;;;15.30;99.90;;;;;;4995945;28;20046;-85
2022/07/29 05:00:37;;;;;;;;;;;15.40;99.90;;;;;;5012636;28;20045;-84
2022/07/29 05:03:03;;;;;;;3.83;1.30;;;15.40;99.90;;;;;;5011964;28;19921;-84
2022/07/29 05:05:29;;;;;;;;;;;15.40;99.90;;;;;;5011280;28;20052;-84
2022/07/29 05:07:55;;;;;;;4.18;1.40;;;15.40;99.90;;;;;;5011777;28;20012;-84
2022/07/29 05:10:20;;;;;;;3.63;1.40;;;15.40;99.90;;;;;;5011966;28;20034;-84
2022/07/29 05:12:46;;;;;;;3.80;1.10;;;15.40;99.90;;;;;;5011911;28;20069;-84
2022/07/29 05:15:12;;;;;;;5.43;1.42;;;15.50;99.90;;;;;;5011956;28;20320;-83
2022/07/29 05:17:38;;;;;;;5.00;1.35;;;15.50;99.90;;;;;;4979199;28;20134;-85
2022/07/29 05:20:05;;;;;;;2.22;1.08;;;15.50;99.90;;;;;;4995162;28;20080;-83
2022/07/29 05:22:30;;;;;;;3.90;1.23;;;15.50;99.90;;;;;;4979229;28;20038;-84
2022/07/29 05:24:56;;;;;;;5.38;1.63;;;15.50;99.90;;;;;;4995103;28;20025;-84
2022/07/29 05:27:22;;;;;;;2.55;1.55;;;15.50;99.90;;;;;;4995360;28;20188;-84
2022/07/29 05:29:47;;;;;;;3.58;1.23;;;15.50;99.90;;;;;;4994713;28;20040;-83
2022/07/29 05:32:13;;;;;;;5.25;1.70;;;15.60;99.90;;;;;;4995178;28;20041;-83
2022/07/29 05:34:40;;;;;;;5.03;1.58;;;15.60;99.90;;;;;;5011522;28;20160;-84
2022/07/29 05:37:06;;;;;;;6.10;1.70;;;15.60;99.90;;;;;;5010908;28;20061;-84
2022/07/29 05:39:31;;;;;;;5.55;1.45;;;15.60;99.90;;;;;;5011149;28;20477;-84
2022/07/29 05:41:57;;;;;;;5.40;1.20;;;15.70;99.90;;;;;;4978541;28;20038;-83
2022/07/29 05:44:23;;;;;;;4.40;1.35;;;15.70;99.90;;;;;;5011349;28;20069;-84
2022/07/29 05:46:48;;;;;;;6.03;1.50;;;15.80;99.90;;;;;;5011538;28;20053;-84
2022/07/29 05:49:14;;;;;;;3.17;1.20;;;15.80;99.90;;;;;;5011183;28;20034;-84
2022/07/29 05:51:40;;;;;;;3.58;1.40;;;15.70;99.90;;;;;;5011034;28;20042;-84
2022/07/29 05:54:06;;;;;;;6.80;1.27;;;15.80;99.90;;;;;;4994612;28;20076;-84
2022/07/29 05:56:31;;;;;;;3.33;1.30;;;15.90;99.90;;;;;;5010478;28;20091;-82
2022/07/29 05:58:57;;;;;;;3.65;1.27;;;15.90;99.90;;;;;;4991434;28;20042;-83
2022/07/29 06:01:23;;;;;;;5.13;1.50;;;15.90;99.90;;;;;;5011171;28;20421;-83
2022/07/29 06:03:48;;;;;;;5.05;1.38;;;15.90;99.90;;;;;;4994604;28;20092;-83
2022/07/29 06:06:14;;;;;;;4.28;1.60;;;16.00;99.90;;;;;;4994060;28;20049;-83
2022/07/29 06:08:40;;;;;;;3.70;1.25;;;16.00;99.90;;;;;;5010777;28;20042;-84
2022/07/29 06:11:07;;;;;;;2.80;1.33;;;16.10;99.90;;;;;;4994402;28;20135;-84
2022/07/29 06:13:33;;;;;;;3.67;1.58;;;16.20;99.90;;;;;;4994771;28;20052;-84
2022/07/29 06:15:59;;;;;;;4.95;1.40;;;16.20;99.90;;;;;;4978202;28;20034;-84
2022/07/29 06:18:24;;;;;;;3.65;1.38;;;16.30;99.90;;;;;;4996783;28;20104;-83
2022/07/29 06:20:51;;;;;;;4.90;1.73;;;16.40;99.90;;;;;;4998305;28;20038;-83
2022/07/29 06:23:17;;;;;;;4.63;1.30;;;16.50;99.90;;;;;;4997482;28;20042;-83
2022/07/29 06:25:43;;;;;;;;;;;16.60;99.90;;;;;;5014550;28;20552;-83
2022/07/29 06:28:08;;;;;;;5.05;1.60;;;16.60;99.90;;;;;;4999135;28;19921;-83
2022/07/29 06:30:34;;;;;;;4.05;1.52;;;16.70;99.90;;;;;;5015452;28;20498;-82
2022/07/29 06:33:01;;;;;;;3.42;1.23;;;16.80;99.90;;;;;;5015316;28;20042;-82
2022/07/29 06:35:27;;;;;;;6.22;1.50;;;16.90;99.90;;;;;;4999267;28;20037;-82
2022/07/29 06:37:53;;;;;;;4.45;1.35;;;17.00;99.90;;;;;;4999090;28;20038;-82
2022/07/29 06:43:03;;;;;;;4.07;1.50;;;17.00;99.90;;;;;;5000391;28;20045;-83
2022/07/29 06:45:29;;;;;;;4.82;1.40;;;17.10;99.90;;;;;;5015835;28;20482;-83
2022/07/29 06:47:54;;;;;;;4.60;1.80;;;17.20;99.90;;;;;;5000508;28;20037;-83
2022/07/29 06:50:21;;;;;;;4.05;1.42;;;17.30;99.90;;;;;;5030483;28;20117;-83
2022/07/29 06:52:47;;;;;;;2.45;1.42;;;17.50;99.90;;;;;;5001149;28;20038;-83
2022/07/29 06:55:13;;;;;;;4.53;1.40;;;17.80;99.90;;;;;;5015620;28;20045;-83
2022/07/29 06:57:39;;;;;;;5.50;1.17;;;18.10;99.90;;;;;;5015152;28;20576;-83
2022/07/29 07:00:06;;;;;;;2.97;1.13;;;18.30;99.90;;;;;;4997198;28;20037;-84
2022/07/29 07:02:32;;;;;;;4.25;1.23;;;18.40;99.90;;;;;;5010396;28;20129;-83
2022/07/29 07:04:58;;;;;;;7.47;1.30;;;18.30;99.90;;;;;;5010183;28;20078;-83
2022/07/29 07:07:24;;;;;;;5.40;1.83;;;18.20;99.90;;;;;;4975856;28;20077;-83
2022/07/29 07:09:50;;;;;;;3.83;1.75;;;18.00;99.90;;;;;;4994212;28;20486;-85
2022/07/29 07:12:16;;;;;;;3.47;1.45;;;18.10;99.90;;;;;;5012858;28;20049;-83
2022/07/29 07:14:41;;;;;;;4.40;1.30;;;18.00;99.90;;;;;;4995461;28;20122;-83
2022/07/29 07:17:07;;;;;;;4.43;1.38;;;18.00;99.90;;;;;;4993968;28;20046;-83
2022/07/29 07:19:33;;;;;;;4.88;1.48;;;18.10;99.90;;;;;;4977675;28;20034;-83
2022/07/29 07:21:59;;;;;;;5.80;1.58;;;18.20;99.90;;;;;;4993838;28;20041;-84
2022/07/29 07:24:25;;;;;;;2.50;1.20;;;18.30;99.90;;;;;;5009888;28;20079;-82
2022/07/29 07:26:51;;;;;;;7.20;1.40;;;18.40;99.90;;;;;;5010228;28;20184;-84
2022/07/29 07:29:16;;;;;;;4.18;1.40;;;18.50;99.90;;;;;;5012440;28;20038;-83
2022/07/29 07:31:42;;;;;;;4.22;1.42;;;18.50;99.90;;;;;;4997444;28;20037;-82
2022/07/29 07:34:08;;;;;;;3.45;1.60;;;18.50;99.90;;;;;;5013447;28;20041;-83
2022/07/29 07:36:34;;;;;;;3.55;1.40;;;18.50;99.90;;;;;;4997511;28;20462;-83
2022/07/29 07:38:59;;;;;;;4.63;1.38;;;18.50;99.90;;;;;;5014116;28;20449;-82
2022/07/29 07:41:25;;;;;;;5.82;1.48;;;18.50;99.90;;;;;;5013859;28;20038;-82
2022/07/29 07:43:50;;;;;;;4.47;1.67;;;18.60;99.90;;;;;;5013175;28;20125;-82
2022/07/29 07:46:16;;;;;;;2.75;1.55;;;18.60;99.90;;;;;;4980219;28;20050;-82
2022/07/29 07:48:42;;;;;;;7.38;1.55;;;18.60;99.90;;;;;;4996678;28;20133;-82
2022/07/29 07:51:08;;;;;;;4.15;1.10;;;18.60;99.90;;;;;;4997196;28;20038;-82
2022/07/29 07:53:34;;;;;;;4.60;1.45;;;18.60;99.90;;;;;;4997646;28;20491;-81
2022/07/29 07:56:00;;;;;;;4.53;1.40;;;18.70;99.90;;;;;;5013440;28;20048;-82
2022/07/29 07:58:26;;;;;;;5.25;1.40;;;18.60;99.90;;;;;;5014021;28;20072;-82
2022/07/29 08:00:52;;;;;;;2.97;1.42;;;18.60;99.90;;;;;;4997483;28;20048;-82
2022/07/29 08:03:18;;;;;;;2.88;1.35;;;18.50;99.90;;;;;;4980816;28;20576;-84
2022/07/29 08:05:44;;;;;;;4.57;1.20;;;18.50;99.90;;;;;;5013006;28;20064;-82
2022/07/29 08:08:09;;;;;;;2.50;1.30;;;18.60;99.90;;;;;;5002275;28;20053;-83
2022/07/29 08:10:55;;;;;;;4.28;1.67;;;18.60;99.90;;;;;;5013329;28;20037;-84
2022/07/29 08:13:23;;;;;;;6.75;1.58;;;18.70;99.90;;;;;;4998763;28;20138;-82
2022/07/29 08:15:57;;;;;;;4.82;1.60;;;18.80;99.90;;;;;;5000625;28;20045;-83
2022/07/29 08:18:24;;;;;;;4.22;1.65;;;18.80;99.90;;;;;;5012752;28;20081;-84
2022/07/29 08:20:50;;;;;;;4.53;1.48;;;18.80;99.90;;;;;;5013304;28;20493;-83
2022/07/29 08:23:16;;;;;;;3.78;1.50;;;18.80;99.90;;;;;;5012284;28;20057;-84
2022/07/29 08:25:42;;;;;;;3.33;1.33;;;18.90;99.90;;;;;;5012767;28;20038;-85
2022/07/29 08:28:07;;;;;;;3.55;1.40;;;18.80;99.90;;;;;;4996196;28;20084;-84
2022/07/29 08:30:34;;;;;;;4.20;1.60;;;18.70;99.90;;;;;;4996631;28;20037;-84
2022/07/29 08:33:00;;;;;;;3.53;1.50;;;18.80;99.90;;;;;;4996346;28;20042;-84
2022/07/29 08:35:27;;;;;;;4.05;2.00;;;18.90;99.90;;;;;;5012185;28;20124;-83
2022/07/29 08:37:53;;;;;;;2.95;1.50;;;19.00;99.90;;;;;;5012623;28;20100;-85
2022/07/29 08:40:20;;;;;;;4.07;1.67;;;19.00;99.90;;;;;;5012212;28;20037;-86
2022/07/29 08:42:46;;;;;;;5.32;1.58;;;19.00;99.90;;;;;;5012958;28;20081;-81
2022/07/29 08:45:12;;;;;;;5.43;1.58;;;19.20;99.90;;;;;;4980923;28;20037;-82
2022/07/29 08:47:39;;;;;;;4.97;1.50;;;19.30;99.90;;;;;;5011718;28;20034;-80
2022/07/29 08:50:09;;;;;;;4.70;1.70;;;19.40;99.90;;;;;;5011771;28;20034;-80
2022/07/29 08:52:40;;;;;;;5.72;1.70;;;19.50;99.90;;;;;;4996129;28;20060;-83
2022/07/29 08:55:08;;;;;;;3.08;1.63;;;19.50;99.90;;;;;;4995761;28;20084;-80
2022/07/29 08:57:35;;;;;;;5.07;1.98;;;19.50;99.90;;;;;;4995775;28;20030;-80
2022/07/29 09:00:03;;;;;;;6.32;2.00;;;19.50;99.90;;;;;;5012611;28;20433;-80
2022/07/29 09:02:35;;;;;;;6.10;1.65;;;19.60;99.90;;;;;;5012176;28;20042;-79
2022/07/29 09:05:05;;;;;;;4.07;1.40;;;19.70;99.90;;;;;;5011853;28;20726;-80
2022/07/29 09:07:31;;;;;;;9.88;1.65;;;19.90;99.90;;;;;;5012228;28;21434;-80
2022/07/29 09:09:56;;;;;;;4.15;1.50;;;19.80;99.90;;;;;;5012123;28;20045;-80
2022/07/29 09:12:24;;;;;;;4.93;1.65;;;19.80;99.90;;;;;;5013999;28;20044;-80
2022/07/29 09:14:51;;;;;;;5.07;1.70;;;19.90;99.90;;;;;;4986924;28;20053;-81
2022/07/29 09:17:17;;;;;;;;;;;19.90;99.90;;;;;;5011966;28;20029;-80
2022/07/29 09:19:43;;;;;;;5.37;1.63;;;19.90;99.90;;;;;;5011927;28;19917;-81
2022/07/29 09:22:10;;;;;;;4.60;1.70;;;19.90;99.90;;;;;;4995443;28;20041;-81
2022/07/29 09:24:42;;;;;;;3.45;1.50;;;20.00;99.90;;;;;;5011665;28;20478;-81
2022/07/29 09:27:12;;;;;;;6.13;1.60;;;20.00;99.90;;;;;;5011084;28;20033;-81
2022/07/29 09:29:38;;;;;;;3.53;1.50;;;20.10;99.90;;;;;;5011365;28;20120;-81
2022/07/29 09:32:06;;;;;;;;;;;20.10;99.90;;;;;;5011974;28;20494;-81
2022/07/29 09:34:31;;;;;;;2.58;1.42;;;20.10;99.90;;;;;;5011582;28;19917;-82
2022/07/29 09:36:57;;;;;;;6.07;1.52;;;20.10;99.90;;;;;;5011020;28;20053;-81
2022/07/29 09:39:45;;;;;;;4.30;1.50;;;20.10;99.90;;;;;;5010024;28;20048;-81
2022/07/29 09:42:11;;;;;;;4.78;1.80;;;20.20;99.90;;;;;;5010837;28;20045;-81
2022/07/29 09:44:45;;;;;;;4.15;2.00;;;20.10;99.90;;;;;;4994968;28;20116;-80
2022/07/29 09:47:11;;;;;;;4.45;2.08;;;20.10;99.90;;;;;;4990302;28;20046;-81
2022/07/29 09:49:53;;;;;;;4.80;1.80;;;20.10;99.90;;;;;;5011149;28;20045;-82
2022/07/29 09:52:19;;;;;;;4.32;1.40;;;20.20;99.90;;;;;;4994147;28;20505;-80
2022/07/29 09:54:45;;;;;;;5.03;1.60;;;20.20;99.90;;;;;;4994842;28;20113;-81
2022/07/29 09:57:26;;;;;;;6.85;1.60;;;20.30;99.90;;;;;;5010978;28;20038;-80
2022/07/29 10:00:06;;;;;;;8.77;1.77;;;20.30;99.90;;;;;;5026048;28;20034;-80
2022/07/29 10:02:35;;;;;;;6.20;1.95;;;20.20;99.90;;;;;;5012328;28;20037;-82
2022/07/29 10:05:03;;;;;;;4.03;1.40;;;20.20;99.90;;;;;;5010876;28;20438;-82
2022/07/29 10:07:50;;;;;;;5.63;1.73;;;20.20;99.90;;;;;;5010827;28;20517;-81
2022/07/29 10:10:20;;;;;;;;;;;20.20;99.90;;;;;;4994895;28;20486;-81
2022/07/29 10:12:55;;;;;;;3.60;1.48;;;20.30;99.90;;;;;;5011436;28;19979;-81
2022/07/29 10:15:23;;;;;;;3.88;1.73;;;20.20;99.90;;;;;;5010513;28;20033;-81
2022/07/29 10:17:51;;;;;;;4.65;1.60;;;20.20;99.90;;;;;;5011065;28;20037;-81
2022/07/29 10:20:17;;;;;;;3.08;1.60;;;20.30;99.90;;;;;;5008350;28;20038;-80
2022/07/29 10:22:43;;;;;;;7.60;1.85;;;20.30;99.90;;;;;;5010987;28;20084;-82
2022/07/29 10:25:10;;;;;;;5.07;1.83;;;20.40;99.90;;;;;;5010727;28;20038;-81
2022/07/29 10:27:36;;;;;;;4.95;1.52;;;20.50;99.90;;;;;;4994022;28;20073;-81
2022/07/29 10:30:04;;;;;;;4.15;1.70;;;20.70;99.90;;;;;;5010799;28;20033;-80
2022/07/29 10:32:34;;;;;;;5.07;1.98;;;20.80;99.90;;;;;;4993877;28;20045;-81
2022/07/29 10:35:12;;;;;;;6.35;1.60;;;20.70;99.90;;;;;;5010726;28;20038;-81
2022/07/29 10:38:04;;;;;;;6.10;1.90;;;20.70;99.90;;;;;;5008774;28;20038;-81
2022/07/29 10:43:35;;;;;;;4.47;2.00;;;20.70;99.90;;;;;;5008466;28;20072;-81
2022/07/29 10:46:03;;;;;;;4.28;1.75;;;20.90;99.90;;;;;;5009506;28;20104;-82
2022/07/29 10:48:29;;;;;;;5.07;1.88;;;21.00;99.90;;;;;;5010219;28;20390;-81
2022/07/29 10:51:02;;;;;;;5.00;2.08;;;21.10;99.90;;;;;;4978233;28;20441;-80
2022/07/29 10:53:48;;;;;;;5.65;1.75;;;20.90;99.90;;;;;;5008925;28;20509;-81
2022/07/29 10:56:30;;;;;;;8.77;2.53;;;20.90;99.90;;;;;;4993515;28;20048;-81
2022/07/29 10:59:18;;;;;;;3.67;1.83;;;21.00;99.90;;;;;;5008432;28;20505;-81
2022/07/29 11:01:44;;;;;;;4.63;1.80;;;20.90;99.90;;;;;;5007316;28;20061;-82
2022/07/29 11:04:10;;;;;;;3.17;1.83;;;20.90;99.90;;;;;;4996368;28;20034;-82
2022/07/29 11:07:04;;;;;;;4.53;1.92;;;20.90;99.90;;;;;;5014059;28;20056;-81
2022/07/29 11:09:30;;;;;;;3.65;1.90;;;20.80;99.90;;;;;;5028407;28;20057;-82
2022/07/29 11:11:57;;;;;;;4.05;2.25;;;20.80;99.90;;;;;;4998068;28;20034;-81
2022/07/29 11:14:57;;;;;;;5.38;2.05;;;20.80;99.90;;;;;;5013610;28;20052;-80
2022/07/29 11:17:23;;;;;;;6.63;2.08;;;20.80;99.90;;;;;;5011340;28;20042;-81
2022/07/29 11:19:49;;;;;;;5.78;1.83;;;20.70;99.90;;;;;;4996971;28;20505;-82
2022/07/29 11:22:32;;;;;;;;;;;20.80;99.90;;;;;;4997197;28;20532;-81
2022/07/29 11:25:18;;;;;;;6.20;2.05;;;20.80;99.90;;;;;;5013804;28;20370;-82
2022/07/29 11:27:47;;;;;;;5.57;2.05;;;20.90;99.90;;;;;;5016873;28;20065;-84
2022/07/29 11:30:13;;;;;;;6.35;2.28;;;20.90;99.90;;;;;;4997267;28;20082;-81
2022/07/29 11:32:43;;;;;;;4.88;2.10;;;21.10;99.90;;;;;;4997106;28;20045;-84
2022/07/29 11:35:20;;;;;;;5.18;2.30;;;21.30;99.90;;;;;;4997949;28;20053;-82
2022/07/29 11:38:24;;;;;;;5.82;2.38;;;21.50;99.90;;;;;;4997567;28;20061;-86
2022/07/29 11:41:24;;;;;;;6.03;2.17;;;21.80;99.90;;;;;;4993801;28;20093;-85
2022/07/29 11:43:53;;;;;;;4.35;2.40;;;22.00;99.90;;;;;;4996538;28;20037;-85
2022/07/29 11:46:46;;;;;;;7.43;2.25;;;22.40;99.90;;;;;;5013811;28;20073;-85
2022/07/29 11:49:12;;;;;;;4.78;2.28;;;22.50;99.90;;;;;;5011435;28;20129;-86
2022/07/29 11:51:38;;;;;;;6.40;2.20;;;22.60;99.90;;;;;;4997199;28;20741;-85
2022/07/29 11:54:04;;;;;;;;;;;22.90;99.90;;;;;;4998132;28;20155;-84
2022/07/29 11:56:32;;;;;;;5.35;2.30;;;23.00;99.90;;;;;;5007152;28;20377;-84
2022/07/29 11:59:24;;;;;;;3.45;2.00;;;23.30;99.90;;;;;;5013842;28;20061;-86
2022/07/29 12:01:54;;;;;;;4.80;2.15;;;23.40;99.90;;;;;;5010539;28;20421;-86
2022/07/29 12:04:20;;;;;;;4.13;2.20;;;23.50;99.90;;;;;;4992888;28;20500;-85
2022/07/29 12:06:52;;;;;;;;;;;23.50;99.90;;;;;;5013931;28;20050;-85
2022/07/29 12:09:19;;;;;;;3.85;2.10;;;23.50;99.90;;;;;;4995550;28;19918;-80
2022/07/29 12:11:46;;;;;;;5.82;1.80;;;23.60;99.90;;;;;;4997542;28;20505;-80
2022/07/29 12:14:29;;;;;;;5.80;1.95;;;23.60;99.90;;;;;;4979978;28;20049;-80
2022/07/29 12:16:56;;;;;;;3.03;1.80;;;23.70;99.90;;;;;;4995800;28;20081;-83
2022/07/29 12:19:22;;;;;;;3.67;1.70;;;23.80;99.90;;;;;;5012913;28;20046;-82
2022/07/29 12:21:48;;;;;;;;;;;23.80;99.90;;;;;;4997427;28;20108;-82
2022/07/29 12:24:16;;;;;;;5.83;1.80;;;24.00;99.90;;;;;;5012937;28;19968;-81
2022/07/29 12:26:53;;;;;;;6.82;1.83;;;24.10;99.90;;;;;;5012702;28;20373;-81
2022/07/29 12:29:19;;;;;;;3.78;1.83;;;24.00;99.90;;;;;;5013014;28;20459;-82
2022/07/29 12:31:46;;;;;;;5.35;1.90;;;23.90;99.90;;;;;;5012409;28;20064;-79
2022/07/29 12:34:14;;;;;;;7.78;2.15;;;23.90;99.90;;;;;;5012851;28;20042;-81
2022/07/29 12:36:43;;;;;;;6.00;1.92;;;23.90;99.80;;;;;;5012850;28;20052;-82
2022/07/29 12:39:11;;;;;;;5.18;2.00;;;23.90;99.90;;;;;;5011001;28;20410;-81
2022/07/29 12:41:37;;;;;;;5.10;1.75;;;23.80;99.90;;;;;;5012307;28;20041;-81
2022/07/29 12:44:03;;;;;;;5.10;1.90;;;24.00;99.90;;;;;;4996175;28;20034;-81
2022/07/29 12:46:28;;;;;;;;;;;24.00;99.90;;;;;;4996151;28;20121;-82
2022/07/29 12:48:54;;;;;;;3.92;1.55;;;24.10;99.90;;;;;;5012530;28;19921;-81
2022/07/29 12:51:38;;;;;;;4.85;1.55;;;24.30;99.90;;;;;;5012062;28;20064;-84
2022/07/29 12:54:13;;;;;;;3.08;1.40;;;24.30;99.30;;;;;;5012429;28;20495;-82
2022/07/29 12:56:40;;;;;;;7.35;1.52;;;24.40;98.80;;;;;;5009884;28;20042;-82
2022/07/29 12:59:17;;;;;;;3.78;1.60;;;24.50;99.20;;;;;;5012188;28;20045;-82
2022/07/29 13:01:43;;;;;;;;;;;24.70;98.30;;;;;;5010909;28;20045;-82
2022/07/29 13:04:09;;;;;;;4.30;1.50;;;24.80;98.50;;;;;;4995861;28;19971;-82
2022/07/29 13:06:58;;;;;;;;;;;25.20;99.00;;;;;;4995714;28;20050;-82